South Seaside Park, New Jersey
Current Conditions -  °F | °C
As of 1:15 PM on Friday 28 Nov 2014 (Local Time) from KMJX Reporting Station
Overcast Overcast  
Wind Chill: 29°   Ceiling: 4700
Heat Index: 36°   Visibility: 10mi
Dew Point: 18°   Wind: 9mph
Humidity: 48%   Direction: 320°NW
Pressure: 30.18"   Gusts: NA
Location:  39.8448°N, 74.0905°W
Report Text: KMJX 281815Z AUTO 32008KT 10SM OVC047 02/M08 A3018 RMK AO1
Loading
Personal Weather Stations






























Interactive Weather Map New forecast layout! Learn more

10-Day Weather Forecast

Advertisements
Track Severe Weather on mobile